Time;durP1;ratioP1;P1;durP2;ratioP2;P2;SDS_P1;SDS_P2;PMS_P1;PMS_P2;Temp;Humidity;BMP_temperature;BMP_pressure;BME280_temperature;BME280_humidity;BME280_pressure;Samples;Min_cycle;Max_cycle;Signal;HPM_P1;HPM_P2
2022/01/17 00:00:37;;;;;;;6.35;3.60;;;;;;;1.39;58.46;100621.50;1702160;84;21233;-60
2022/01/17 00:03:43;;;;;;;7.80;3.55;;;;;;;1.38;58.59;100614.84;1701978;84;21238;-59
2022/01/17 00:06:53;;;;;;;8.58;3.40;;;;;;;1.37;58.80;100611.31;1702001;84;21238;-61
2022/01/17 00:10:01;;;;;;;7.95;4.25;;;;;;;1.39;58.84;100604.45;1701947;84;21226;-60
2022/01/17 00:13:10;;;;;;;6.15;3.10;;;;;;;1.40;58.70;100607.03;1702093;84;21265;-59
2022/01/17 00:16:22;;;;;;;10.53;4.05;;;;;;;1.39;58.46;100603.11;1702037;81;21218;-59
2022/01/17 00:22:29;;;;;;;8.45;4.10;;;;;;;1.37;58.34;100582.99;1717934;83;21205;-61
2022/01/17 00:25:35;;;;;;;7.90;4.12;;;;;;;1.34;58.36;100575.61;1717847;83;21726;-60
2022/01/17 00:28:41;;;;;;;7.03;3.70;;;;;;;1.31;58.48;100568.63;1717730;83;21443;-60
2022/01/17 00:31:46;;;;;;;7.55;3.22;;;;;;;1.28;58.61;100565.28;1717692;83;21246;-60
2022/01/17 00:34:54;;;;;;;12.98;5.62;;;;;;;1.24;58.67;100552.51;1717753;83;21237;-60
2022/01/17 00:37:59;;;;;;;9.93;4.83;;;;;;;1.23;58.74;100547.23;1717829;83;21214;-62
2022/01/17 00:41:04;;;;;;;11.28;4.92;;;;;;;1.21;58.83;100537.03;1717780;83;21205;-61
2022/01/17 00:44:11;;;;;;;8.78;3.92;;;;;;;1.21;58.97;100539.73;1717740;83;21300;-60
2022/01/17 00:47:19;;;;;;;6.00;3.67;;;;;;;1.18;58.67;100534.09;1717597;83;21799;-60
2022/01/17 00:50:27;;;;;;;9.18;4.95;;;;;;;1.18;58.60;100535.44;1717725;83;21392;-61
2022/01/17 00:53:36;;;;;;;6.97;3.98;;;;;;;1.17;58.62;100528.81;1717745;83;21244;-60
2022/01/17 00:56:41;;;;;;;8.60;3.80;;;;;;;1.12;58.51;100533.20;1717684;83;21667;-60
2022/01/17 00:59:46;;;;;;;9.65;3.98;;;;;;;1.05;58.36;100535.95;1689581;83;21399;-59
2022/01/17 01:02:53;;;;;;;7.95;3.70;;;;;;;0.99;58.73;100525.63;1717735;83;21985;-60
2022/01/17 01:06:00;;;;;;;7.87;3.98;;;;;;;0.98;59.06;100523.05;1717844;83;21334;-60
2022/01/17 01:09:08;;;;;;;8.15;4.05;;;;;;;0.98;59.35;100517.66;1717722;83;21384;-61
2022/01/17 01:12:14;;;;;;;7.53;4.28;;;;;;;0.96;59.45;100515.08;1717852;83;21244;-60
2022/01/17 01:15:34;;;;;;;5.97;3.40;;;;;;;0.93;59.38;100509.92;1717769;83;21387;-59
2022/01/17 01:28:28;;;;;;;8.53;4.08;;;;;;;0.83;60.17;100485.95;1710043;84;21376;-59
2022/01/17 01:31:43;;;;;;;8.85;4.55;;;;;;;0.85;60.23;100475.94;1710021;84;21388;-60
2022/01/17 01:34:48;;;;;;;7.97;3.98;;;;;;;0.87;60.33;100464.53;1710015;84;21277;-62
2022/01/17 01:37:51;;;;;;;9.15;4.10;;;;;;;0.92;60.46;100460.19;1710032;84;21234;-60
2022/01/17 01:40:56;;;;;;;7.22;4.30;;;;;;;0.97;60.41;100455.28;1710020;84;21229;-59
2022/01/17 01:44:03;;;;;;;8.03;4.47;;;;;;;0.98;60.26;100447.09;1710129;84;21411;-61
2022/01/17 01:47:09;;;;;;;8.28;3.75;;;;;;;0.99;60.24;100451.52;1710210;84;21368;-59
2022/01/17 01:50:15;;;;;;;11.03;3.90;;;;;;;0.97;60.17;100430.55;1709998;84;21467;-59
2022/01/17 01:53:26;;;;;;;9.03;4.17;;;;;;;0.96;60.06;100427.98;1710068;84;21262;-60
2022/01/17 01:56:32;;;;;;;11.43;5.67;;;;;;;0.90;60.09;100421.23;1689383;84;21279;-61
2022/01/17 01:59:41;;;;;;;8.98;4.72;;;;;;;0.84;60.13;100416.27;1710091;83;21865;-59
2022/01/17 02:02:46;;;;;;;9.28;4.55;;;;;;;0.77;60.15;100412.33;1709957;84;21373;-60
2022/01/17 02:05:53;;;;;;;9.33;5.08;;;;;;;0.69;60.36;100402.60;1710043;84;21424;-60
2022/01/17 02:09:00;;;;;;;9.80;4.40;;;;;;;0.64;60.48;100395.81;1710110;84;21427;-59
2022/01/17 02:12:06;;;;;;;11.73;5.28;;;;;;;0.58;60.66;100391.77;1710053;84;21748;-60
2022/01/17 02:15:12;;;;;;;12.43;5.60;;;;;;;0.55;60.76;100381.70;1710147;84;21234;-59
2022/01/17 02:18:21;;;;;;;12.13;5.20;;;;;;;0.53;60.92;100377.77;1710004;84;21317;-59
2022/01/17 02:24:50;;;;;;;12.37;5.72;;;;;;;0.43;61.07;100363.25;1710072;82;21298;-60
2022/01/17 02:27:55;;;;;;;14.65;6.47;;;;;;;0.38;61.24;100354.65;1710039;84;21356;-60
2022/01/17 02:31:05;;;;;;;13.58;6.28;;;;;;;0.35;61.45;100360.26;1710062;84;21364;-59
2022/01/17 02:34:09;;;;;;;12.00;6.65;;;;;;;0.31;61.55;100348.48;1710141;84;21861;-60
2022/01/17 02:37:18;;;;;;;11.38;6.28;;;;;;;0.28;61.66;100352.28;1710137;84;21443;-60
2022/01/17 02:40:25;;;;;;;14.00;6.83;;;;;;;0.24;61.86;100345.37;1693974;84;21416;-60
2022/01/17 02:43:32;;;;;;;10.85;6.67;;;;;;;0.22;62.05;100339.75;1710142;84;21896;-60
2022/01/17 02:46:38;;;;;;;12.93;6.62;;;;;;;0.22;62.29;100338.41;1710142;84;21604;-60
2022/01/17 02:49:43;;;;;;;11.73;6.83;;;;;;;0.21;62.39;100337.53;1710105;83;21388;-60
2022/01/17 02:52:51;;;;;;;17.45;6.78;;;;;;;0.21;62.52;100334.84;1710157;84;21356;-60
2022/01/17 02:56:10;;;;;;;15.23;6.47;;;;;;;0.18;62.69;100335.06;1689473;84;21728;-61
2022/01/17 02:59:17;;;;;;;10.88;6.50;;;;;;;0.14;62.92;100321.48;1710124;84;21261;-60
2022/01/17 03:02:24;;;;;;;16.67;6.78;;;;;;;0.12;63.07;100303.23;1710236;84;21353;-61
2022/01/17 03:05:30;;;;;;;14.18;7.17;;;;;;;0.10;63.23;100298.44;1710150;82;21412;-60
2022/01/17 03:08:40;;;;;;;18.23;7.65;;;;;;;0.07;63.41;100282.52;1710248;84;21420;-60
2022/01/17 03:11:48;;;;;;;13.58;7.80;;;;;;;0.03;63.58;100291.30;1710047;84;21762;-62
2022/01/17 03:14:56;;;;;;;15.38;8.15;;;;;;;-0.02;63.72;100282.69;1710013;84;21395;-60
2022/01/17 03:18:04;;;;;;;16.23;7.10;;;;;;;-0.06;63.91;100269.58;1710242;84;21281;-60
2022/01/17 03:21:10;;;;;;;12.50;7.37;;;;;;;-0.11;64.11;100272.61;1709066;79;21286;-60
2022/01/17 03:24:15;;;;;;;14.05;7.83;;;;;;;-0.13;64.34;100264.29;1702029;84;21317;-60
2022/01/17 03:27:22;;;;;;;12.63;7.78;;;;;;;-0.15;64.48;100266.23;1702118;84;21862;-61
2022/01/17 03:30:28;;;;;;;14.20;7.35;;;;;;;-0.17;64.64;100261.44;1702060;84;21682;-60
2022/01/17 03:33:36;;;;;;;16.70;7.67;;;;;;;-0.19;64.77;100256.17;1702056;84;21241;-60
2022/01/17 03:36:44;;;;;;;11.95;7.35;;;;;;;-0.21;64.88;100246.00;1702006;84;21578;-62
2022/01/17 03:39:49;;;;;;;15.30;7.22;;;;;;;-0.24;64.99;100246.73;1701980;84;21234;-60
2022/01/17 03:42:57;;;;;;;15.55;7.42;;;;;;;-0.27;65.19;100236.20;1702157;84;21210;-61
2022/01/17 03:46:06;;;;;;;14.05;7.80;;;;;;;-0.30;65.27;100246.67;1681037;84;21238;-60
2022/01/17 03:49:11;;;;;;;14.55;7.97;;;;;;;-0.32;65.37;100241.05;1702033;84;21203;-61
2022/01/17 03:52:19;;;;;;;13.53;7.40;;;;;;;-0.38;65.54;100234.27;1702030;84;21215;-61
2022/01/17 03:55:28;;;;;;;16.25;8.48;;;;;;;-0.43;65.74;100229.70;1701958;84;21234;-61
2022/01/17 03:58:33;;;;;;;15.32;9.05;;;;;;;-0.45;65.91;100233.02;1701937;84;21253;-61
2022/01/17 04:01:38;;;;;;;17.90;9.93;;;;;;;-0.47;66.07;100222.84;1702005;84;21225;-61
2022/01/17 04:04:43;;;;;;;13.80;8.08;;;;;;;-0.46;66.18;100216.98;1702133;84;21810;-62
2022/01/17 04:07:49;;;;;;;14.95;7.85;;;;;;;-0.46;66.30;100202.20;1701986;84;21221;-62
2022/01/17 04:10:55;;;;;;;15.53;8.38;;;;;;;-0.46;66.39;100194.14;1702166;84;21245;-61
2022/01/17 04:14:05;;;;;;;16.73;8.23;;;;;;;-0.46;66.49;100191.45;1702056;84;21222;-60
2022/01/17 04:17:13;;;;;;;23.85;8.38;;;;;;;-0.47;66.51;100193.27;1702135;84;21290;-61
2022/01/17 04:20:26;;;;;;;14.07;8.60;;;;;;;-0.50;66.58;100185.91;1701971;84;21245;-62
2022/01/17 04:23:30;;;;;;;15.98;9.15;;;;;;;-0.54;66.68;100189.30;1701133;84;21800;-62
2022/01/17 04:26:35;;;;;;;14.43;8.63;;;;;;;-0.57;66.79;100181.97;1702047;84;21270;-62
2022/01/17 04:29:42;;;;;;;16.97;9.10;;;;;;;-0.56;66.88;100187.23;1701989;84;21262;-62
2022/01/17 04:32:51;;;;;;;17.80;9.13;;;;;;;-0.60;66.94;100176.78;1701971;84;21233;-62
2022/01/17 04:36:00;;;;;;;15.55;8.68;;;;;;;-0.60;67.06;100163.34;1693070;84;21250;-62
2022/01/17 04:39:10;;;;;;;15.10;9.75;;;;;;;-0.60;67.17;100152.59;1685699;85;21359;-62
2022/01/17 04:42:24;;;;;;;15.08;8.55;;;;;;;-0.61;67.22;100156.27;1685662;85;21287;-63
2022/01/17 04:45:25;;;;;;;18.25;9.20;;;;;;;-0.62;67.26;100143.80;1700082;83;21245;-62
2022/01/17 04:48:32;;;;;;;17.30;9.58;;;;;;;-0.61;67.34;100136.10;1703485;84;21253;-63
2022/01/17 04:51:38;;;;;;;19.65;9.45;;;;;;;-0.60;67.37;100134.64;1703415;84;21233;-63
2022/01/17 04:54:51;;;;;;;20.97;10.13;;;;;;;-0.55;67.38;100127.59;1703504;84;21237;-61
2022/01/17 04:57:52;;;;;;;17.45;9.23;;;;;;;-0.54;67.36;100116.72;1703407;84;21217;-62
2022/01/17 05:00:59;;;;;;;18.87;10.10;;;;;;;-0.47;67.28;100115.78;1703538;84;21242;-62
2022/01/17 05:04:05;;;;;;;17.90;10.05;;;;;;;-0.46;67.18;100103.58;1680361;84;21708;-63
2022/01/17 05:07:11;;;;;;;17.75;9.38;;;;;;;-0.44;67.14;100101.64;1703444;84;21237;-62
2022/01/17 05:10:21;;;;;;;17.45;9.85;;;;;;;-0.38;67.18;100097.66;1682358;84;21241;-63
2022/01/17 05:13:33;;;;;;;16.32;9.55;;;;;;;-0.35;66.99;100077.26;1703440;84;21230;-61
2022/01/17 05:16:38;;;;;;;18.45;9.18;;;;;;;-0.33;66.89;100077.50;1703593;84;21767;-61
2022/01/17 05:19:53;;;;;;;19.62;10.85;;;;;;;-0.31;66.81;100063.94;1703775;84;21233;-62
2022/01/17 05:22:58;;;;;;;21.55;11.70;;;;;;;-0.31;66.77;100056.73;1687533;81;21253;-62
2022/01/17 05:26:08;;;;;;;18.65;9.80;;;;;;;-0.30;66.79;100058.44;1708912;83;21403;-60
2022/01/17 05:29:13;;;;;;;18.35;10.40;;;;;;;-0.26;66.80;100061.77;1711145;84;21908;-61
2022/01/17 05:32:20;;;;;;;16.10;9.53;;;;;;;-0.24;66.74;100058.48;1721055;82;21348;-60
2022/01/17 05:35:24;;;;;;;18.12;9.23;;;;;;;-0.23;66.69;100058.84;1721351;81;21387;-61
2022/01/17 05:38:29;;;;;;;16.35;9.78;;;;;;;-0.21;66.64;100058.25;1721318;82;21382;-61
2022/01/17 05:41:34;;;;;;;20.55;8.98;;;;;;;-0.22;66.64;100043.94;1721408;83;21227;-61
2022/01/17 05:44:43;;;;;;;16.75;10.00;;;;;;;-0.16;66.60;100052.04;1726790;81;21365;-61
2022/01/17 05:47:48;;;;;;;15.90;10.18;;;;;;;-0.18;66.45;100045.91;1715330;83;21354;-61
2022/01/17 05:50:56;;;;;;;19.67;9.83;;;;;;;-0.17;66.45;100039.55;1748205;81;21344;-62
2022/01/17 05:54:01;;;;;;;17.57;10.48;;;;;;;-0.14;66.52;100050.06;1718376;82;21561;-62
2022/01/17 05:57:08;;;;;;;20.88;10.45;;;;;;;-0.09;66.56;100075.66;1705442;83;21226;-62
2022/01/17 06:00:17;;;;;;;18.20;10.50;;;;;;;-0.02;66.49;100060.74;1709969;84;21225;-61
2022/01/17 06:03:22;;;;;;;23.73;12.33;;;;;;;0.04;66.42;100054.05;1717792;82;21225;-62
2022/01/17 06:06:28;;;;;;;17.90;11.25;;;;;;;0.12;66.38;100052.98;1710325;84;21210;-62
2022/01/17 06:09:39;;;;;;;26.65;12.58;;;;;;;0.23;66.31;100030.13;1712631;82;22118;-62
2022/01/17 06:12:46;;;;;;;20.05;12.10;;;;;;;0.32;66.07;100025.36;1719979;81;21500;-61
2022/01/17 06:16:00;;;;;;;20.30;10.78;;;;;;;0.39;65.77;100010.94;1708889;83;21205;-61
2022/01/17 06:19:12;;;;;;;42.70;20.97;;;;;;;0.44;65.49;99996.15;1727191;82;21261;-62
2022/01/17 06:22:17;;;;;;;44.98;21.77;;;;;;;0.50;65.29;99943.16;1712019;81;21213;-62
2022/01/17 06:25:23;;;;;;;38.75;16.90;;;;;;;0.58;65.11;99945.22;1694222;82;21716;-62
2022/01/17 06:28:29;;;;;;;45.50;22.80;;;;;;;0.65;64.80;99941.06;1678438;83;21303;-62
2022/01/17 06:31:34;;;;;;;23.25;12.53;;;;;;;0.69;64.58;99947.90;1695748;84;21274;-62
2022/01/17 06:34:39;;;;;;;34.83;17.02;;;;;;;0.76;64.38;99939.19;1687253;84;21235;-62
2022/01/17 06:37:46;;;;;;;35.58;18.05;;;;;;;0.86;64.23;99927.17;1704165;84;21227;-62
2022/01/17 06:40:52;;;;;;;30.92;16.15;;;;;;;0.91;63.86;99903.41;1702550;84;21256;-62
2022/01/17 06:44:00;;;;;;;30.23;14.28;;;;;;;0.96;63.69;99891.77;1668872;86;21249;-62
2022/01/17 06:47:07;;;;;;;29.50;13.50;;;;;;;1.00;63.39;99867.12;1668306;86;21214;-62
2022/01/17 06:50:15;;;;;;;26.77;14.10;;;;;;;1.05;63.17;99849.22;1691761;83;21623;-62
2022/01/17 06:53:26;;;;;;;26.10;15.25;;;;;;;1.05;62.79;99831.22;1696307;83;21269;-61
2022/01/17 06:56:31;;;;;;;24.07;12.58;;;;;;;1.08;62.75;99824.22;1697292;84;21210;-62
2022/01/17 06:59:37;;;;;;;29.72;16.42;;;;;;;1.12;62.56;99824.83;1687993;83;21830;-62
2022/01/17 07:02:44;;;;;;;26.60;14.25;;;;;;;1.12;62.45;99847.25;1665804;84;21247;-60
2022/01/17 07:05:51;;;;;;;23.02;13.45;;;;;;;1.15;62.43;99846.98;1694235;84;21203;-61
2022/01/17 07:08:59;;;;;;;19.52;11.48;;;;;;;1.17;62.38;99889.47;1697240;83;21249;-62
2022/01/17 07:12:08;;;;;;;23.65;11.48;;;;;;;1.16;62.12;99925.98;1697806;84;21261;-62
2022/01/17 07:15:15;;;;;;;19.67;11.97;;;;;;;1.15;62.09;99936.41;1656968;85;21283;-62
2022/01/17 07:18:21;;;;;;;22.48;11.93;;;;;;;1.15;62.07;99875.28;1630010;88;21294;-62
2022/01/17 07:21:30;;;;;;;24.60;12.95;;;;;;;1.16;61.96;99846.47;1674286;85;21277;-62
2022/01/17 07:24:39;;;;;;;24.20;11.78;;;;;;;1.20;62.10;99792.20;1696643;81;21218;-62
2022/01/17 07:27:51;;;;;;;18.62;10.80;;;;;;;1.28;61.91;99780.75;1697058;83;21252;-62
2022/01/17 07:30:57;;;;;;;23.75;11.95;;;;;;;1.33;61.94;99790.14;1712058;83;21362;-62
2022/01/17 07:34:07;;;;;;;21.27;11.70;;;;;;;1.40;61.87;99787.77;1715720;83;21724;-62
2022/01/17 07:37:17;;;;;;;22.25;13.03;;;;;;;1.50;61.78;99801.69;1717386;81;21194;-62
2022/01/17 07:40:22;;;;;;;21.27;11.68;;;;;;;1.61;61.55;99812.88;1681124;84;21405;-61
2022/01/17 07:43:28;;;;;;;22.73;13.03;;;;;;;1.76;61.20;99823.67;1712367;83;21307;-62
2022/01/17 07:46:47;;;;;;;20.80;12.60;;;;;;;1.89;60.72;99812.17;1722044;82;21261;-62
2022/01/17 07:49:45;;;;;;;22.25;13.35;;;;;;;2.04;60.37;99812.17;1656294;84;21270;-62
2022/01/17 07:52:51;;;;;;;25.80;14.35;;;;;;;2.13;59.85;99778.09;1716890;83;21267;-61
2022/01/17 07:55:58;;;;;;;19.40;11.73;;;;;;;2.18;59.70;99767.73;1715815;82;21192;-62
2022/01/17 07:59:02;;;;;;;21.35;12.75;;;;;;;2.19;59.40;99719.00;1730625;82;21588;-62
2022/01/17 08:02:08;;;;;;;20.08;12.35;;;;;;;2.23;59.09;99729.91;1700704;84;21279;-61
2022/01/17 08:05:18;;;;;;;23.65;12.20;;;;;;;2.21;58.54;99732.36;1680790;83;21252;-61
2022/01/17 08:08:23;;;;;;;20.75;12.15;;;;;;;2.16;58.31;99727.88;1709563;83;21217;-62
2022/01/17 08:11:28;;;;;;;22.42;13.08;;;;;;;2.10;58.20;99714.45;1682704;85;21772;-62
2022/01/17 08:14:33;;;;;;;21.35;11.33;;;;;;;2.05;58.07;99693.77;1717139;82;21209;-61
2022/01/17 08:17:42;;;;;;;17.52;11.48;;;;;;;2.01;57.70;99682.04;1715703;82;21224;-61
2022/01/17 08:20:49;;;;;;;21.85;11.75;;;;;;;1.96;57.82;99676.20;1698449;83;21216;-61
2022/01/17 08:23:55;;;;;;;24.80;12.68;;;;;;;1.99;57.74;99644.89;1688365;85;21866;-61
2022/01/17 08:27:00;;;;;;;25.43;13.43;;;;;;;2.03;57.80;99647.68;1704988;81;21316;-61
2022/01/17 08:30:08;;;;;;;17.23;10.72;;;;;;;2.12;57.94;99656.27;1710333;82;21229;-61
2022/01/17 08:33:15;;;;;;;19.32;10.88;;;;;;;2.15;57.75;99643.36;1706515;84;21356;-61
2022/01/17 08:36:21;;;;;;;19.23;11.18;;;;;;;2.21;57.75;99647.32;1708609;82;21356;-62
2022/01/17 08:39:29;;;;;;;27.45;12.20;;;;;;;2.25;57.71;99628.52;1674754;85;21239;-63
2022/01/17 08:42:37;;;;;;;24.47;13.55;;;;;;;2.30;57.65;99627.08;1678525;85;21232;-62
2022/01/17 08:45:48;;;;;;;19.98;11.88;;;;;;;2.38;57.64;99608.31;1640258;87;21223;-62
2022/01/17 08:48:53;;;;;;;18.57;10.90;;;;;;;2.41;57.54;99581.55;1666139;86;21658;-61
2022/01/17 08:51:59;;;;;;;25.02;11.22;;;;;;;2.47;57.44;99602.08;1666226;86;21292;-61
2022/01/17 08:55:05;;;;;;;20.25;11.75;;;;;;;2.48;57.31;99570.02;1666729;86;21244;-61
2022/01/17 08:58:14;;;;;;;21.80;12.20;;;;;;;2.53;57.05;99577.19;1666538;86;21221;-61
2022/01/17 09:01:22;;;;;;;23.27;11.78;;;;;;;2.53;56.97;99601.98;1666815;84;21615;-60
2022/01/17 09:04:32;;;;;;;20.82;12.05;;;;;;;2.57;57.07;99579.11;1666723;86;21233;-60
2022/01/17 09:07:39;;;;;;;20.40;11.85;;;;;;;2.64;56.80;99568.91;1668341;85;21210;-60
2022/01/17 09:10:49;;;;;;;21.70;11.00;;;;;;;2.66;56.47;99564.72;1725864;82;21221;-61
2022/01/17 09:13:58;;;;;;;20.50;12.78;;;;;;;2.69;56.40;99565.77;1711377;84;21944;-61
2022/01/17 09:17:10;;;;;;;20.68;12.28;;;;;;;2.72;56.05;99548.78;1721716;82;21507;-61
2022/01/17 09:20:20;;;;;;;23.87;13.15;;;;;;;2.78;56.00;99534.67;1717362;83;21247;-60
2022/01/17 09:23:29;;;;;;;20.75;11.97;;;;;;;2.83;55.69;99540.98;1717646;83;21204;-60
2022/01/17 09:26:35;;;;;;;22.37;12.23;;;;;;;2.86;55.35;99548.78;1717843;83;21238;-61
2022/01/17 09:29:43;;;;;;;21.27;12.43;;;;;;;2.84;55.20;99544.02;1711824;82;21255;-61
2022/01/17 09:32:50;;;;;;;22.42;11.85;;;;;;;2.85;55.19;99535.77;1712092;84;21228;-62
2022/01/17 09:35:56;;;;;;;22.95;11.97;;;;;;;2.89;55.24;99539.03;1691710;83;21331;-61
2022/01/17 09:39:04;;;;;;;18.40;11.12;;;;;;;2.94;55.14;99517.82;1706578;84;21523;-61
2022/01/17 09:42:13;;;;;;;23.95;13.70;;;;;;;3.00;54.97;99498.30;1699907;84;21405;-62
2022/01/17 09:45:24;;;;;;;24.30;14.20;;;;;;;3.08;54.91;99492.16;1685015;83;21493;-62
2022/01/17 09:48:38;;;;;;;26.97;14.13;;;;;;;3.17;54.86;99484.00;1647847;85;21787;-61
2022/01/17 09:52:03;;;;;;;21.45;12.60;;;;;;;3.25;54.61;99474.59;1679841;83;21247;-60
2022/01/17 09:54:55;;;;;;;24.77;13.75;;;;;;;3.27;54.39;99472.60;1628240;88;21267;-62
2022/01/17 09:58:12;;;;;;;20.68;11.85;;;;;;;3.31;54.34;99470.45;1660654;86;21262;-61
2022/01/17 10:01:17;;;;;;;23.12;13.18;;;;;;;3.37;54.30;99468.48;1660997;86;21236;-62
2022/01/17 10:04:29;;;;;;;24.87;14.38;;;;;;;3.44;54.13;99457.41;1660706;86;21806;-61
2022/01/17 10:08:13;;;;;;;22.20;13.20;;;;;;;3.50;54.08;99452.24;1664551;83;21828;-60
2022/01/17 10:11:22;;;;;;;22.62;12.35;;;;;;;3.52;53.67;99446.16;1654052;86;21610;-61
2022/01/17 10:14:36;;;;;;;21.57;11.85;;;;;;;3.52;53.27;99435.33;1688209;85;22132;-62
2022/01/17 10:17:56;;;;;;;18.57;11.68;;;;;;;3.47;52.78;99417.39;1655041;86;21461;-62
2022/01/17 10:21:08;;;;;;;18.65;11.75;;;;;;;3.48;52.72;99415.52;1689197;85;21242;-60
2022/01/17 10:24:26;;;;;;;20.17;11.85;;;;;;;3.55;52.52;99411.20;1687768;85;21243;-61
2022/01/17 10:27:56;;;;;;;24.43;13.03;;;;;;;3.62;52.27;99406.84;1654081;86;21239;-61
2022/01/17 10:31:02;;;;;;;21.30;12.25;;;;;;;3.68;52.15;99404.36;1710812;83;21233;-61
2022/01/17 10:37:12;;;;;;;47.17;18.15;;;;;;;3.83;52.03;99390.63;1678977;85;21684;-60
2022/01/17 10:40:19;;;;;;;25.48;13.75;;;;;;;3.86;51.76;99368.66;1679913;85;21390;-60
2022/01/17 10:43:42;;;;;;;24.55;14.38;;;;;;;3.85;51.99;99361.56;1673239;85;21393;-61
2022/01/17 10:46:50;;;;;;;24.55;13.18;;;;;;;3.90;52.13;99353.79;1653442;86;21281;-60
2022/01/17 10:49:59;;;;;;;28.05;13.75;;;;;;;3.95;52.13;99341.98;1711167;83;21375;-62
2022/01/17 10:53:11;;;;;;;23.40;13.78;;;;;;;3.99;51.96;99335.75;1711868;83;21387;-60
2022/01/17 10:56:19;;;;;;;22.90;13.75;;;;;;;3.93;51.88;99331.81;1721134;83;21368;-61
2022/01/17 10:59:36;;;;;;;31.05;15.58;;;;;;;3.90;52.24;99317.25;1717814;83;21434;-61
2022/01/17 11:02:43;;;;;;;26.87;14.40;;;;;;;3.87;52.45;99313.51;1699321;82;21261;-61
2022/01/17 11:05:52;;;;;;;27.27;14.40;;;;;;;3.85;52.66;99305.22;1712533;82;21320;-62
2022/01/17 11:09:13;;;;;;;27.10;15.05;;;;;;;3.79;52.96;99308.04;1730747;83;21338;-61
2022/01/17 11:12:20;;;;;;;28.38;15.32;;;;;;;3.79;53.18;99325.63;1709304;82;21446;-60
2022/01/17 11:15:28;;;;;;;31.55;16.05;;;;;;;3.74;53.25;99330.66;1702468;84;21410;-61
2022/01/17 11:18:37;;;;;;;28.00;15.55;;;;;;;3.65;53.65;99335.69;1713116;82;21212;-60
2022/01/17 11:21:42;;;;;;;32.15;16.10;;;;;;;3.62;53.92;99327.88;1705499;82;21280;-60
2022/01/17 11:24:48;;;;;;;27.60;15.88;;;;;;;3.55;54.11;99315.16;1682277;85;21237;-60
2022/01/17 11:27:53;;;;;;;32.28;16.75;;;;;;;3.50;54.41;99323.75;1727981;82;21845;-61
2022/01/17 11:31:01;;;;;;;27.02;16.90;;;;;;;3.46;54.80;99322.34;1732250;78;21225;-61
2022/01/17 11:34:09;;;;;;;23.80;15.08;;;;;;;3.43;55.17;99322.66;1718295;82;21218;-61
2022/01/17 11:37:19;;;;;;;27.40;15.05;;;;;;;3.38;55.31;99318.22;1719421;82;21199;-61
2022/01/17 11:40:32;;;;;;;26.20;16.05;;;;;;;3.36;55.47;99304.03;1722342;82;21237;-60
2022/01/17 11:43:41;;;;;;;25.12;15.48;;;;;;;3.34;55.53;99296.56;1708185;82;21308;-60
2022/01/17 11:46:59;;;;;;;23.27;14.95;;;;;;;3.34;55.54;99284.89;1726786;82;21220;-60
2022/01/17 11:50:08;;;;;;;24.07;15.32;;;;;;;3.30;55.81;99272.17;1724148;82;21401;-60
2022/01/17 11:53:26;;;;;;;22.43;14.83;;;;;;;3.29;56.06;99265.09;1739881;81;21606;-60
2022/01/17 11:56:52;;;;;;;25.48;14.07;;;;;;;3.23;56.06;99261.66;1734623;82;21426;-60
2022/01/17 12:00:05;;;;;;;22.52;13.72;;;;;;;3.18;56.33;99257.72;1725270;82;21207;-61
2022/01/17 12:03:28;;;;;;;28.73;17.00;;;;;;;3.14;56.64;99257.17;1715244;82;21299;-61
2022/01/17 12:06:42;;;;;;;29.15;14.23;;;;;;;3.15;56.86;99252.13;1688794;82;21814;-61
2022/01/17 12:09:52;;;;;;;23.70;14.45;;;;;;;3.14;57.00;99244.19;1699641;82;21650;-60
2022/01/17 12:13:33;;;;;;;28.70;16.10;;;;;;;3.15;57.32;99238.61;1711769;82;21229;-60
2022/01/17 12:16:37;;;;;;;29.92;16.73;;;;;;;3.14;57.36;99232.02;1700615;82;21186;-63
2022/01/17 12:19:50;;;;;;;27.42;15.45;;;;;;;3.14;57.54;99234.72;1721350;81;21787;-61
2022/01/17 12:23:06;;;;;;;25.75;15.08;;;;;;;3.15;57.67;99244.02;1709462;83;21575;-61
2022/01/17 12:26:37;;;;;;;27.25;15.15;;;;;;;3.13;57.71;99225.75;1705133;82;21281;-62
2022/01/17 12:30:01;;;;;;;25.72;15.95;;;;;;;3.10;58.14;99232.83;1715242;82;21781;-60
2022/01/17 12:33:06;;;;;;;33.63;17.45;;;;;;;3.05;59.20;99232.44;1716045;82;21257;-61
2022/01/17 12:36:42;;;;;;;27.82;16.45;;;;;;;2.97;60.29;99232.38;1715907;82;21221;-62
2022/01/17 12:39:53;;;;;;;29.23;15.98;;;;;;;2.91;61.41;99219.48;1716275;83;21217;-61
2022/01/17 12:43:15;;;;;;;28.45;16.70;;;;;;;2.83;62.05;99205.41;1702753;83;21257;-60
2022/01/17 12:46:27;;;;;;;29.07;18.85;;;;;;;2.74;62.43;99209.03;1717460;83;21786;-60
2022/01/17 12:49:35;;;;;;;29.37;17.65;;;;;;;2.69;62.92;99211.38;1660683;85;21248;-60
2022/01/17 12:52:41;;;;;;;27.65;16.82;;;;;;;2.64;63.46;99203.37;1671906;84;21767;-60
2022/01/17 12:55:55;;;;;;;26.65;16.40;;;;;;;2.59;63.79;99209.73;1651478;85;21537;-61
2022/01/17 12:59:01;;;;;;;25.97;16.87;;;;;;;2.57;63.92;99180.70;1676270;85;21274;-60
2022/01/17 13:02:12;;;;;;;29.55;18.02;;;;;;;2.57;63.78;99173.42;1650395;85;21210;-62
2022/01/17 13:05:18;;;;;;;27.73;17.17;;;;;;;2.60;63.74;99176.34;1663396;84;22080;-61
2022/01/17 13:08:24;;;;;;;29.30;17.55;;;;;;;2.63;63.63;99174.67;1671398;84;21227;-63
2022/01/17 13:11:30;;;;;;;34.15;18.98;;;;;;;2.65;63.58;99176.69;1655466;86;21507;-61
2022/01/17 13:14:36;;;;;;;29.92;17.30;;;;;;;2.67;63.36;99176.91;1644554;85;21261;-62
2022/01/17 13:17:42;;;;;;;31.87;17.82;;;;;;;2.68;63.33;99166.43;1679420;84;21229;-60
2022/01/17 13:20:49;;;;;;;29.15;18.37;;;;;;;2.69;63.25;99149.73;1678190;85;21293;-60
2022/01/17 13:24:12;;;;;;;36.05;19.82;;;;;;;2.69;63.16;99154.64;1647006;86;21232;-61
2022/01/17 13:27:12;;;;;;;29.72;18.40;;;;;;;2.72;63.12;99144.02;1673437;85;21775;-60
2022/01/17 13:30:21;;;;;;;37.63;19.32;;;;;;;2.74;63.12;99139.31;1672799;84;21284;-61
2022/01/17 13:33:29;;;;;;;31.60;18.27;;;;;;;2.76;63.21;99172.40;1657568;84;21248;-62
2022/01/17 13:36:36;;;;;;;29.82;17.42;;;;;;;2.74;63.34;99167.67;1705680;84;21257;-60
2022/01/17 13:39:42;;;;;;;30.75;18.73;;;;;;;2.71;63.58;99155.83;1725333;82;21257;-61
2022/01/17 13:43:04;;;;;;;29.72;18.67;;;;;;;2.65;63.75;99173.98;1707383;82;21222;-60
2022/01/17 13:46:12;;;;;;;28.95;17.57;;;;;;;2.62;64.05;99183.76;1694784;82;21281;-61
2022/01/17 13:49:23;;;;;;;31.20;18.35;;;;;;;2.58;64.28;99154.03;1663954;83;21301;-62
2022/01/17 13:52:33;;;;;;;31.02;17.52;;;;;;;2.57;64.38;99146.94;1640305;87;21514;-61
2022/01/17 13:55:50;;;;;;;29.98;19.27;;;;;;;2.58;64.50;99108.11;1652752;86;21746;-62
2022/01/17 13:58:57;;;;;;;31.30;19.07;;;;;;;2.59;64.60;99097.15;1690275;83;21233;-61
2022/01/17 14:02:03;;;;;;;26.87;16.93;;;;;;;2.60;64.59;99083.98;1729359;82;21227;-60
2022/01/17 14:05:16;;;;;;;29.70;17.98;;;;;;;2.58;64.63;99084.66;1709891;83;21794;-61
2022/01/17 14:08:35;;;;;;;32.42;17.90;;;;;;;2.55;64.75;99083.59;1699966;83;21346;-63
2022/01/17 14:11:41;;;;;;;32.60;18.87;;;;;;;2.56;64.78;99079.91;1709342;82;21213;-61
2022/01/17 14:14:57;;;;;;;29.42;17.70;;;;;;;2.57;64.81;99069.97;1707155;82;21198;-62
2022/01/17 14:18:14;;;;;;;;;;;;;;;2.57;64.95;99058.64;1725121;81;21189;-61
2022/01/17 14:21:39;;;;;;;33.98;18.90;;;;;;;2.57;65.06;99050.53;1707309;81;20269;-60
2022/01/17 14:24:48;;;;;;;32.67;19.75;;;;;;;2.57;65.15;99045.66;1703173;83;21593;-61
2022/01/17 14:28:13;;;;;;;30.25;18.00;;;;;;;2.57;65.18;99026.75;1705457;83;21224;-61
2022/01/17 14:31:24;;;;;;;34.25;18.92;;;;;;;2.58;65.25;99015.79;1705811;83;21601;-61
2022/01/17 14:34:31;;;;;;;28.67;18.12;;;;;;;2.62;65.23;99002.30;1714275;81;21859;-62
2022/01/17 14:37:39;;;;;;;30.45;18.73;;;;;;;2.63;65.24;98996.40;1706063;83;21785;-62
2022/01/17 14:40:46;;;;;;;29.30;18.35;;;;;;;2.61;65.26;98991.16;1705448;83;21192;-61
2022/01/17 14:43:55;;;;;;;33.02;19.37;;;;;;;2.60;65.33;98989.97;1717542;83;21225;-61
2022/01/17 14:47:02;;;;;;;29.70;18.75;;;;;;;2.57;65.47;98992.47;1732661;82;21186;-60
2022/01/17 14:50:09;;;;;;;37.28;20.08;;;;;;;2.57;65.61;98987.06;1720705;82;21217;-60
2022/01/17 14:53:23;;;;;;;35.78;20.52;;;;;;;2.59;65.69;98975.61;1712987;82;21214;-62
2022/01/17 15:00:03;;;;;;;38.20;19.82;;;;;;;2.59;65.82;98959.90;1712711;82;21233;-62